Terminal Aerodrome Forecast
Issued by NWS

Home | Current Version | Previous Version | Graphics & Text | Print | Product List | Glossary On
Versions: 1 2 3 4 5 6 7 8 9 10 11 12 13 14 15 16 17 18 19 20 21 22 23 24
000
FTUS43 KBIS 252300 AAC
TAFMOT
TAF AMD
KMOT 252301Z 2523/2618 05012KT 1/4SM SN FZFG OVC006
     FM260000 02012KT 1SM -SN OVC008
     FM260200 01018G27KT 6SM -SN BLSN OVC010
     FM260600 35012KT P6SM OVC015
     FM261500 32005KT P6SM SCT015=

USA.gov is the U.S. government's official web portal to all federal, state and local government web resources and services.